.
WxDataArchive / Data Records for 2015-07-08
2015-07-07 July 2015 2015-07-09

Data Records for Wednesday, 08 July 2015

Time	Temp	Chill	HIndex	Humid	Dewpt	 Wind 	HiWind	WindDir	Rain 	Barom
-----	----	-----	------	-----	-----	------	------	-------	-----	-----
00:00	65.2	65.2	65.2	81	59.2	0	0	---	0.00	30.000 
00:05	65.2	65.2	65.2	81	59.2	0	3	292	0.00	30.000 
00:10	65.0	65.0	65.0	79	58.3	0	3	292	0.00	30.000 
00:15	64.8	64.8	64.8	77	57.4	1	4	112	0.00	29.999 
00:20	64.8	64.8	64.8	77	57.4	1	3	112	0.00	29.999 
00:25	64.8	64.8	64.8	77	57.4	1	3	112	0.00	29.999 
00:30	64.8	64.8	64.8	77	57.4	0	2	112	0.00	30.001 
00:35	64.8	64.8	64.8	77	57.4	0	1	135	0.00	30.001 
00:40	64.8	64.8	64.8	78	57.8	0	2	135	0.00	30.001 
00:45	64.7	64.7	64.7	78	57.7	0	1	135	0.00	30.003 
00:50	64.7	64.7	64.7	78	57.7	1	2	135	0.00	30.003 
00:55	64.5	64.5	64.5	78	57.5	0	3	135	0.00	30.003 
01:00	64.3	64.3	64.3	78	57.3	0	2	135	0.00	30.004 
01:05	64.3	64.3	64.3	78	57.3	0	2	135	0.00	30.004 
01:10	64.2	64.2	64.2	79	57.5	1	4	248	0.00	30.004 
01:15	64.0	64.0	64.0	78	57.0	0	2	248	0.00	30.006 
01:20	64.0	64.0	64.0	78	57.0	0	2	248	0.00	30.006 
01:25	63.9	63.9	63.9	79	57.3	0	1	248	0.00	30.006 
01:30	63.7	63.7	63.7	79	57.1	0	2	248	0.00	30.012 
01:35	63.5	63.5	63.5	79	56.9	0	3	248	0.00	30.012 
01:40	63.4	63.4	63.4	79	56.8	0	1	112	0.00	30.012 
01:45	63.4	63.4	63.4	79	56.8	0	3	135	0.00	30.018 
01:50	63.2	63.2	63.2	79	56.6	0	2	135	0.00	30.018 
01:55	63.1	63.1	63.1	79	56.5	0	2	135	0.00	30.018 
02:00	62.9	62.9	62.9	80	56.6	0	1	135	0.00	30.021 
02:05	62.7	62.7	62.7	80	56.4	0	2	135	0.00	30.021 
02:10	62.6	62.6	62.6	80	56.3	0	1	135	0.00	30.021 
02:15	62.4	62.4	62.4	80	56.1	0	1	135	0.00	30.022 
02:20	62.3	62.3	62.3	81	56.4	0	1	135	0.00	30.022 
02:25	62.1	62.1	62.1	81	56.2	0	1	135	0.00	30.022 
02:30	62.0	62.0	62.0	81	56.1	0	1	135	0.00	30.021 
02:35	61.8	61.8	61.8	82	56.2	0	1	135	0.00	30.021 
02:40	61.6	61.6	61.6	82	56.0	0	0	---	0.00	30.021 
02:45	61.5	61.5	61.5	82	55.9	0	1	135	0.00	30.023 
02:50	61.3	61.3	61.3	83	56.1	0	0	---	0.00	30.023 
02:55	61.2	61.2	61.2	83	56.0	0	0	---	0.00	30.023 
03:00	61.0	61.0	61.0	84	56.1	0	0	---	0.00	30.025 
03:05	60.9	60.9	60.9	84	56.0	0	1	135	0.00	30.025 
03:10	60.7	60.7	60.7	84	55.8	0	1	135	0.00	30.025 
03:15	60.5	60.5	60.5	85	56.0	0	1	135	0.00	30.024 
03:20	60.5	60.5	60.5	85	56.0	0	1	135	0.00	30.024 
03:25	60.4	60.4	60.4	85	55.9	0	1	135	0.00	30.024 
03:30	60.2	60.2	60.2	85	55.7	0	0	---	0.00	30.029 
03:35	60.2	60.2	60.2	85	55.7	0	0	---	0.00	30.029 
03:40	60.1	60.1	60.1	86	55.9	0	0	---	0.00	30.029 
03:45	60.1	60.1	60.1	86	55.9	0	0	---	0.00	30.030 
03:50	59.9	59.9	59.9	86	55.7	0	0	---	0.00	30.030 
03:55	59.8	59.8	59.8	86	55.6	0	0	---	0.00	30.030 
04:00	59.8	59.8	59.8	87	55.9	0	0	---	0.00	30.029 
04:05	59.6	59.6	59.6	87	55.7	0	0	---	0.00	30.029 
04:10	59.6	59.6	59.6	87	55.7	0	0	---	0.00	30.029 
04:15	59.5	59.5	59.5	87	55.6	0	0	---	0.00	30.030 
04:20	59.5	59.5	59.5	87	55.6	0	0	---	0.00	30.030 
04:25	59.3	59.3	59.3	88	55.7	0	0	---	0.00	30.030 
04:30	59.2	59.2	59.2	88	55.6	0	0	---	0.00	30.030 
04:35	59.2	59.2	59.2	88	55.6	0	0	---	0.00	30.030 
04:40	59.0	59.0	59.0	88	55.4	0	0	---	0.00	30.030 
04:45	58.9	58.9	58.9	88	55.3	0	0	---	0.00	30.031 
04:50	58.7	58.7	58.7	88	55.2	0	0	---	0.00	30.031 
04:55	58.6	58.6	58.6	88	55.1	0	0	---	0.00	30.031 
05:00	58.3	58.3	58.3	88	54.8	0	0	---	0.00	30.034 
05:05	58.1	58.1	58.1	88	54.6	0	0	---	0.00	30.034 
05:10	58.0	58.0	58.0	88	54.5	0	0	---	0.00	30.034 
05:15	58.0	58.0	58.0	88	54.5	0	0	---	0.00	30.035 
05:20	57.8	57.8	57.8	89	54.6	0	0	---	0.00	30.035 
05:25	57.6	57.6	57.6	89	54.4	0	0	---	0.00	30.035 
05:30	57.6	57.6	57.6	89	54.4	0	0	---	0.00	30.035 
05:35	57.6	57.6	57.6	89	54.4	0	0	---	0.00	30.035 
05:40	57.6	57.6	57.6	90	54.7	0	1	135	0.00	30.035 
05:45	57.6	57.6	57.6	90	54.7	0	0	---	0.00	30.042 
05:50	57.6	57.6	57.6	90	54.7	0	1	135	0.00	30.042 
05:55	57.8	57.8	57.8	90	54.9	0	1	135	0.00	30.042 
06:00	57.8	57.8	57.8	90	54.9	0	1	135	0.00	30.044 
06:05	58.0	58.0	58.0	90	55.1	0	0	---	0.00	30.044 
06:10	58.0	58.0	58.0	90	55.1	0	0	---	0.00	30.044 
06:15	57.8	57.8	57.8	90	54.9	0	0	---	0.00	30.045 
06:20	58.0	58.0	58.0	90	55.1	0	0	---	0.00	30.045 
06:25	58.0	58.0	58.0	90	55.1	0	0	---	0.00	30.045 
06:30	58.0	58.0	58.0	90	55.1	0	0	---	0.00	30.046 
06:35	58.1	58.1	58.1	90	55.2	0	0	---	0.00	30.046 
06:40	58.1	58.1	58.1	90	55.2	0	0	---	0.00	30.046 
06:45	58.1	58.1	58.1	90	55.2	0	2	135	0.00	30.052 
06:50	58.3	58.3	58.3	90	55.4	0	1	112	0.00	30.052 
06:55	58.3	58.3	58.3	90	55.4	0	1	112	0.00	30.052 
07:00	58.4	58.4	58.4	90	55.5	0	1	112	0.00	30.055 
07:05	58.6	58.6	58.6	90	55.7	0	1	112	0.00	30.055 
07:10	58.7	58.7	58.7	90	55.8	0	1	112	0.00	30.055 
07:15	58.9	58.9	58.9	90	56.0	0	2	112	0.00	30.052 
07:20	59.2	59.2	59.2	90	56.3	0	3	112	0.00	30.052 
07:25	59.3	59.3	59.3	90	56.4	1	3	112	0.00	30.052 
07:30	59.3	59.3	59.3	90	56.4	1	3	112	0.00	30.053 
07:35	59.3	59.3	59.3	90	56.4	0	2	112	0.00	30.053 
07:40	59.5	59.5	59.5	90	56.6	0	2	112	0.00	30.053 
07:45	59.5	59.5	59.5	90	56.6	0	2	112	0.00	30.052 
07:50	59.6	59.6	59.6	90	56.7	0	2	112	0.00	30.052 
07:55	59.9	59.9	59.9	90	57.0	0	2	112	0.00	30.052 
08:00	60.2	60.2	60.2	90	57.3	1	3	112	0.00	30.061 
08:05	60.4	60.4	60.4	90	57.4	1	3	112	0.00	30.061 
08:10	60.7	60.7	60.7	90	57.7	0	1	112	0.00	30.061 
08:15	61.0	61.0	61.0	89	57.7	0	2	112	0.00	30.066 
08:20	61.0	61.0	61.0	89	57.7	0	2	112	0.00	30.066 
08:25	61.2	61.2	61.2	89	57.9	0	2	112	0.00	30.066 
08:30	61.2	61.2	61.2	89	57.9	1	5	112	0.00	30.073 
08:35	61.5	61.5	61.5	88	57.9	2	4	112	0.00	30.073 
08:40	61.6	61.6	61.6	88	58.0	1	3	90	0.00	30.073 
08:45	61.8	61.8	61.8	87	57.9	1	3	90	0.00	30.073 
08:50	62.1	62.1	62.1	87	58.2	1	3	68	0.00	30.073 
08:55	62.6	62.6	62.6	86	58.3	2	5	90	0.00	30.073 
09:00	63.1	63.1	63.1	84	58.2	1	4	90	0.00	30.063 
09:05	63.1	63.1	63.1	84	58.2	1	5	68	0.00	30.063 
09:10	63.2	63.2	63.2	83	57.9	1	6	90	0.00	30.063 
09:15	63.1	63.1	63.1	82	57.5	3	6	68	0.00	30.070 
09:20	63.1	63.1	63.1	82	57.5	3	6	90	0.00	30.070 
09:25	63.2	63.2	63.2	81	57.3	2	6	68	0.00	30.070 
09:30	63.5	63.5	63.5	81	57.6	2	5	45	0.00	30.071 
09:35	63.5	63.5	63.5	81	57.6	2	5	68	0.00	30.071 
09:40	63.7	63.7	63.7	81	57.8	2	5	68	0.00	30.071 
09:45	64.2	64.2	64.2	81	58.2	2	4	68	0.00	30.064 
09:50	64.5	64.5	64.5	80	58.2	1	4	90	0.00	30.064 
09:55	64.5	64.5	64.5	81	58.5	1	4	90	0.00	30.064 
10:00	64.5	64.5	64.5	80	58.2	2	6	90	0.00	30.059 
10:05	64.7	64.7	64.7	80	58.4	2	5	90	0.00	30.059 
10:10	64.7	64.7	64.7	78	57.7	2	4	90	0.00	30.059 
10:15	64.7	64.7	64.7	78	57.7	1	4	68	0.00	30.064 
10:20	64.8	64.8	64.8	78	57.8	1	4	45	0.00	30.064 
10:25	65.0	65.0	65.0	77	57.6	2	6	68	0.00	30.064 
10:30	65.0	65.0	65.0	77	57.6	2	4	68	0.00	30.067 
10:35	65.0	65.0	65.0	77	57.6	1	5	90	0.00	30.067 
10:40	65.0	65.0	65.0	77	57.6	1	4	90	0.00	30.067 
10:45	64.8	64.8	64.8	77	57.4	1	4	68	0.00	30.072 
10:50	65.0	65.0	65.0	77	57.6	2	5	68	0.00	30.072 
10:55	65.0	65.0	65.0	76	57.2	2	5	68	0.00	30.072 
11:00	65.2	65.2	65.2	77	57.8	1	5	68	0.00	30.072 
11:05	65.3	65.3	65.3	76	57.5	1	3	68	0.00	30.072 
11:10	65.6	65.6	65.6	77	58.2	1	3	68	0.00	30.072 
11:15	65.6	65.6	65.6	75	57.5	1	4	68	0.00	30.068 
11:20	65.6	65.6	65.6	76	57.8	1	4	45	0.00	30.068 
11:25	65.6	65.6	65.6	77	58.2	1	4	68	0.00	30.068 
11:30	65.6	65.6	65.6	76	57.8	1	4	68	0.00	30.068 
11:35	65.6	65.6	65.6	75	57.5	1	4	68	0.00	30.068 
11:40	65.6	65.6	65.6	75	57.5	2	5	68	0.00	30.068 
11:45	65.6	65.6	65.6	75	57.5	1	5	90	0.00	30.070 
11:50	65.8	65.8	65.8	75	57.6	0	3	90	0.00	30.070 
11:55	65.8	65.8	65.8	76	58.0	1	4	90	0.00	30.070 
12:00	65.8	65.8	65.8	75	57.6	1	4	90	0.00	30.072 
12:05	66.3	66.3	66.3	76	58.5	0	2	90	0.00	30.072 
12:10	66.6	66.6	66.6	74	58.0	2	6	112	0.00	30.072 
12:15	66.8	66.8	66.8	73	57.9	1	3	112	0.00	30.071 
12:20	66.8	66.8	66.8	72	57.5	1	2	112	0.00	30.071 
12:25	66.8	66.8	66.8	73	57.9	1	4	68	0.00	30.071 
12:30	66.8	66.8	66.8	72	57.5	1	4	68	0.00	30.070 
12:35	66.9	66.9	66.9	73	58.0	0	2	68	0.00	30.070 
12:40	67.1	67.1	67.1	72	57.8	0	3	68	0.00	30.070 
12:45	66.9	66.9	66.9	71	57.2	1	4	68	0.00	30.068 
12:50	66.9	66.9	66.9	72	57.6	1	4	90	0.00	30.068 
12:55	66.8	66.8	66.8	73	57.9	1	2	90	0.00	30.068 
13:00	66.8	66.8	66.8	75	58.6	1	3	90	0.00	30.060 
13:05	66.6	66.6	66.6	75	58.4	1	3	90	0.00	30.060 
13:10	66.4	66.4	66.4	74	57.9	1	3	90	0.00	30.060 
13:15	66.3	66.3	66.3	74	57.8	1	4	90	0.00	30.059 
13:20	66.3	66.3	66.3	74	57.8	2	5	90	0.00	30.059 
13:25	66.3	66.3	66.3	74	57.8	2	5	90	0.00	30.059 
13:30	66.3	66.3	66.3	74	57.8	1	3	90	0.00	30.057 
13:35	66.6	66.6	66.6	75	58.4	1	3	90	0.00	30.057 
13:40	66.9	66.9	66.9	73	58.0	1	4	90	0.00	30.057 
13:45	67.3	67.3	67.3	72	58.0	2	6	90	0.00	30.047 
13:50	67.4	67.4	67.4	72	58.1	2	6	90	0.00	30.047 
13:55	67.4	67.4	67.4	72	58.1	1	4	90	0.00	30.047 
14:00	67.3	67.3	67.3	71	57.6	2	10	90	0.00	30.042 
14:05	67.3	67.3	67.3	72	58.0	0	2	90	0.00	30.042 
14:10	67.6	67.6	67.6	73	58.6	1	3	90	0.00	30.042 
14:15	67.8	67.8	67.8	71	58.0	0	2	90	0.00	30.043 
14:20	67.8	67.8	67.8	71	58.0	0	2	90	0.00	30.043 
14:25	67.6	67.6	67.6	71	57.9	0	4	90	0.00	30.043 
14:30	67.6	67.6	67.6	71	57.9	0	1	90	0.00	30.046 
14:35	67.3	67.3	67.3	72	58.0	0	3	90	0.00	30.046 
14:40	67.1	67.1	67.1	72	57.8	0	2	90	0.00	30.046 
14:45	66.9	66.9	66.9	72	57.6	0	3	90	0.00	30.043 
14:50	67.1	67.1	67.1	73	58.1	0	1	90	0.00	30.043 
14:55	67.1	67.1	67.1	72	57.8	1	3	90	0.00	30.043 
15:00	67.3	67.3	67.3	73	58.3	1	3	90	0.00	30.039 
15:05	67.3	67.3	67.3	74	58.7	1	2	68	0.00	30.039 
15:10	67.4	67.4	67.4	75	59.2	0	3	68	0.00	30.039 
15:15	67.3	67.3	67.3	74	58.7	1	4	68	0.00	30.031 
15:20	66.9	66.9	66.9	76	59.1	1	3	68	0.00	30.031 
15:25	66.9	66.9	66.9	77	59.4	0	2	45	0.00	30.031 
15:30	66.8	66.8	66.8	77	59.3	1	3	45	0.00	30.030 
15:35	66.6	66.6	66.6	77	59.2	1	5	68	0.00	30.030 
15:40	66.4	66.4	66.4	77	59.0	1	3	90	0.00	30.030 
15:45	66.3	66.3	66.3	78	59.2	0	3	90	0.00	30.032 
15:50	66.3	66.3	66.3	78	59.2	1	4	90	0.00	30.032 
15:55	66.3	66.3	66.3	79	59.6	0	2	68	0.01	30.032 
16:00	66.3	66.3	66.3	80	59.9	0	2	68	0.00	30.033 
16:05	66.1	66.1	66.1	80	59.7	0	2	68	0.01	30.033 
16:10	65.8	65.8	65.8	82	60.1	0	3	68	0.01	30.033 
16:15	65.3	65.3	65.3	83	60.0	0	2	68	0.01	30.031 
16:20	65.0	65.0	65.0	85	60.4	0	1	68	0.02	30.031 
16:25	64.5	64.5	64.5	86	60.2	0	3	68	0.01	30.031 
16:30	64.2	64.2	64.2	87	60.2	0	1	68	0.01	30.033 
16:35	64.2	64.2	64.2	88	60.6	0	1	68	0.00	30.033 
16:40	63.9	63.9	63.9	88	60.3	0	1	68	0.01	30.033 
16:45	63.7	63.7	63.7	89	60.4	0	1	68	0.01	30.032 
16:50	63.5	63.5	63.5	89	60.2	0	1	68	0.00	30.032 
16:55	63.5	63.5	63.5	90	60.5	0	1	68	0.01	30.032 
17:00	63.7	63.7	63.7	90	60.7	0	0	---	0.01	30.028 
17:05	63.9	63.9	63.9	91	61.2	0	1	68	0.00	30.028 
17:10	63.9	63.9	63.9	91	61.2	0	3	68	0.00	30.028 
17:15	63.9	63.9	63.9	91	61.2	0	1	68	0.00	30.022 
17:20	64.0	64.0	64.0	91	61.3	0	2	68	0.00	30.022 
17:25	64.0	64.0	64.0	91	61.3	0	1	68	0.01	30.022 
17:30	63.9	63.9	63.9	91	61.2	0	2	68	0.00	30.023 
17:35	63.7	63.7	63.7	91	61.0	0	1	68	0.00	30.023 
17:40	63.7	63.7	63.7	91	61.0	0	1	68	0.00	30.023 
17:45	63.5	63.5	63.5	91	60.8	0	1	68	0.00	30.025 
17:50	63.5	63.5	63.5	91	60.8	0	0	---	0.00	30.025 
17:55	63.7	63.7	63.7	92	61.3	0	0	---	0.00	30.025 
18:00	63.7	63.7	63.7	92	61.3	0	0	---	0.00	30.029 
18:05	63.7	63.7	63.7	92	61.3	0	0	---	0.00	30.029 
18:10	63.7	63.7	63.7	92	61.3	0	0	---	0.00	30.029 
18:15	63.7	63.7	63.7	92	61.3	0	0	---	0.01	30.029 
18:20	63.5	63.5	63.5	92	61.1	0	0	---	0.00	30.029 
18:25	63.5	63.5	63.5	92	61.1	0	0	---	0.00	30.029 
18:30	63.5	63.5	63.5	92	61.1	0	0	---	0.00	30.027 
18:35	63.5	63.5	63.5	92	61.1	0	0	---	0.00	30.027 
18:40	63.5	63.5	63.5	92	61.1	0	0	---	0.00	30.027 
18:45	63.5	63.5	63.5	92	61.1	0	0	---	0.00	30.019 
18:50	63.5	63.5	63.5	92	61.1	0	1	68	0.00	30.019 
18:55	63.5	63.5	63.5	92	61.1	0	0	---	0.01	30.019 
19:00	63.5	63.5	63.5	92	61.1	0	0	---	0.00	30.015 
19:05	63.5	63.5	63.5	92	61.1	0	2	68	0.00	30.015 
19:10	63.4	63.4	63.4	92	61.0	0	1	68	0.00	30.015 
19:15	63.4	63.4	63.4	92	61.0	0	2	68	0.00	30.015 
19:20	63.2	63.2	63.2	92	60.8	0	2	68	0.00	30.015 
19:25	63.1	63.1	63.1	92	60.7	0	1	68	0.00	30.015 
19:30	62.9	62.9	62.9	92	60.5	0	0	---	0.00	30.016 
19:35	62.9	62.9	62.9	93	60.8	0	1	68	0.00	30.016 
19:40	62.9	62.9	62.9	93	60.8	0	1	68	0.00	30.016 
19:45	62.9	62.9	62.9	93	60.8	0	1	68	0.00	30.004 
19:50	63.1	63.1	63.1	93	61.0	0	1	68	0.00	30.004 
19:55	63.1	63.1	63.1	93	61.0	1	4	68	0.00	30.004 
20:00	63.1	63.1	63.1	93	61.0	0	2	68	0.00	30.001 
20:05	63.1	63.1	63.1	93	61.0	0	2	68	0.00	30.001 
20:10	62.9	62.9	62.9	93	60.8	1	4	68	0.00	30.001 
20:15	62.7	62.7	62.7	93	60.6	0	2	68	0.00	29.997 
20:20	62.7	62.7	62.7	93	60.6	0	1	68	0.00	29.997 
20:25	62.9	62.9	62.9	93	60.8	0	2	68	0.00	29.997 
20:30	62.9	62.9	62.9	93	60.8	0	3	68	0.00	30.002 
20:35	62.7	62.7	62.7	93	60.6	0	1	68	0.00	30.002 
20:40	62.7	62.7	62.7	93	60.6	1	3	68	0.00	30.002 
20:45	62.6	62.6	62.6	93	60.5	0	2	68	0.00	29.998 
20:50	62.6	62.6	62.6	93	60.5	1	4	68	0.00	29.998 
20:55	62.4	62.4	62.4	93	60.3	0	2	68	0.00	29.998 
21:00	62.4	62.4	62.4	93	60.3	0	1	68	0.00	29.998 
21:05	62.6	62.6	62.6	93	60.5	0	1	68	0.00	29.998 
21:10	62.6	62.6	62.6	93	60.5	0	1	68	0.00	29.998 
21:15	62.6	62.6	62.6	93	60.5	0	2	68	0.00	29.995 
21:20	62.6	62.6	62.6	93	60.5	0	1	68	0.00	29.995 
21:25	62.6	62.6	62.6	94	60.8	0	2	68	0.00	29.995 
21:30	62.6	62.6	62.6	94	60.8	1	3	90	0.00	29.995 
21:35	62.6	62.6	62.6	94	60.8	0	2	90	0.00	29.995 
21:40	62.6	62.6	62.6	94	60.8	0	3	90	0.00	29.995 
21:45	62.4	62.4	62.4	94	60.6	1	3	90	0.00	29.997 
21:50	62.4	62.4	62.4	94	60.6	1	2	90	0.00	29.997 
21:55	62.4	62.4	62.4	94	60.6	1	4	68	0.00	29.997 
22:00	62.4	62.4	62.4	94	60.6	1	3	68	0.00	29.996 
22:05	62.4	62.4	62.4	94	60.6	1	4	68	0.00	29.996 
22:10	62.4	62.4	62.4	94	60.6	1	4	45	0.00	29.996 
22:15	62.4	62.4	62.4	94	60.6	0	2	45	0.00	29.998 
22:20	62.4	62.4	62.4	94	60.6	0	2	45	0.00	29.998 
22:25	62.4	62.4	62.4	94	60.6	0	2	45	0.00	29.998 
22:30	62.4	62.4	62.4	95	60.9	0	2	45	0.00	29.997 
22:35	62.4	62.4	62.4	95	60.9	0	2	45	0.00	29.997 
22:40	62.3	62.3	62.3	95	60.8	1	3	68	0.00	29.997 
22:45	62.1	62.1	62.1	95	60.6	1	3	68	0.00	29.997 
22:50	62.1	62.1	62.1	95	60.6	1	4	68	0.00	29.997 
22:55	62.1	62.1	62.1	95	60.6	1	4	68	0.00	29.997 
23:00	62.1	62.1	62.1	95	60.6	1	3	68	0.00	29.995 
23:05	62.1	62.1	62.1	95	60.6	0	4	68	0.00	29.995 
23:10	62.1	62.1	62.1	95	60.6	0	2	68	0.00	29.995 
23:15	62.1	62.1	62.1	95	60.6	1	4	68	0.00	29.987 
23:20	62.1	62.1	62.1	95	60.6	1	3	68	0.00	29.987 
23:25	62.1	62.1	62.1	95	60.6	1	4	68	0.00	29.987 
23:30	62.1	62.1	62.1	95	60.6	1	4	68	0.00	29.980 
23:35	62.1	62.1	62.1	95	60.6	1	4	68	0.00	29.980 
23:40	62.1	62.1	62.1	95	60.6	1	3	68	0.00	29.980 
23:45	62.3	62.3	62.3	95	60.8	0	2	68	0.00	29.978 
23:50	62.3	62.3	62.3	95	60.8	0	1	68	0.00	29.978 
23:55	62.3	62.3	62.3	95	60.8	1	4	90	0.00	29.978 

CoCoRaHS
IN-AL-39
A2 Web Hosting
Creative Commons License
GoDaddy
search engine by freefind advanced

loaded 2018-11-22 06:36:36 • last modified 2010-11-18 10:43:29
Privacy PolicyDisclaimer
• wx.awcolley.com is powered by PmWiki v.2002016 •
• all content (unless otherwise noted) © 2018 A W Colley